Time;durP1;ratioP1;P1;durP2;ratioP2;P2;SDS_P1;SDS_P2;PMS_P1;PMS_P2;Temp;Humidity;BMP_temperature;BMP_pressure;BME280_temperature;BME280_humidity;BME280_pressure;Samples;Min_cycle;Max_cycle;Signal;HPM_P1;HPM_P2
2022/10/17 00:00:45;;;;;;;10.70;5.28;;;13.80;99.90;;;;;;5074033;28;20607;-84
2022/10/17 00:03:12;;;;;;;9.02;5.53;;;13.80;99.90;;;;;;5075521;28;20205;-83
2022/10/17 00:05:42;;;;;;;11.68;5.35;;;13.80;99.90;;;;;;5074849;28;20211;-82
2022/10/17 00:08:10;;;;;;;9.55;5.63;;;13.80;99.90;;;;;;5075108;28;20197;-85
2022/10/17 00:10:39;;;;;;;12.30;6.17;;;13.80;99.90;;;;;;5075292;28;20258;-85
2022/10/17 00:13:07;;;;;;;10.75;5.35;;;13.80;99.90;;;;;;5074350;28;20240;-83
2022/10/17 00:15:34;;;;;;;6.47;5.35;;;13.70;99.90;;;;;;5075029;28;20197;-82
2022/10/17 00:18:03;;;;;;;9.33;5.33;;;13.70;99.90;;;;;;5094630;28;20216;-84
2022/10/17 00:20:31;;;;;;;9.85;5.18;;;13.70;99.90;;;;;;5095104;28;20732;-84
2022/10/17 00:22:59;;;;;;;11.33;5.70;;;13.70;99.90;;;;;;5088264;28;20204;-83
2022/10/17 00:25:26;;;;;;;9.38;4.80;;;13.70;99.90;;;;;;5074790;28;20201;-83
2022/10/17 00:27:54;;;;;;;9.67;6.07;;;13.70;99.90;;;;;;5074909;28;20204;-85
2022/10/17 00:30:21;;;;;;;9.07;5.50;;;13.70;99.90;;;;;;5074745;28;20232;-83
2022/10/17 00:32:48;;;;;;;13.63;5.30;;;13.70;99.90;;;;;;5074309;28;20199;-83
2022/10/17 00:35:15;;;;;;;8.43;4.90;;;13.60;99.90;;;;;;5074109;28;20205;-84
2022/10/17 00:37:42;;;;;;;7.63;4.63;;;13.60;99.90;;;;;;5074103;28;20233;-84
2022/10/17 00:40:10;;;;;;;10.10;5.18;;;13.60;99.90;;;;;;5074590;28;20221;-83
2022/10/17 00:42:37;;;;;;;8.63;4.53;;;13.60;99.90;;;;;;5074435;28;20197;-84
2022/10/17 00:45:16;;;;;;;9.63;5.43;;;13.60;99.90;;;;;;5082997;28;20291;-83
2022/10/17 00:47:46;;;;;;;10.55;4.93;;;13.60;99.90;;;;;;5073785;28;20201;-82
2022/10/17 00:50:14;;;;;;;6.05;5.13;;;13.60;99.90;;;;;;5073232;28;20203;-83
2022/10/17 00:52:43;;;;;;;11.52;5.35;;;13.60;99.90;;;;;;5073588;28;20223;-83
2022/10/17 00:55:13;;;;;;;7.85;5.00;;;13.60;99.90;;;;;;5073718;28;20201;-83
2022/10/17 00:57:41;;;;;;;11.48;6.28;;;13.60;99.90;;;;;;5073733;28;20300;-82
2022/10/17 01:00:11;;;;;;;9.68;5.78;;;13.60;99.90;;;;;;5073924;28;20307;-84
2022/10/17 01:02:39;;;;;;;10.40;5.60;;;13.60;99.90;;;;;;5075796;28;20205;-82
2022/10/17 01:05:07;;;;;;;11.10;6.25;;;13.60;99.90;;;;;;5094048;28;20246;-85
2022/10/17 01:07:35;;;;;;;10.15;6.20;;;13.60;99.90;;;;;;5093950;28;20673;-82
2022/10/17 01:10:02;;;;;;;7.75;6.45;;;13.50;99.90;;;;;;5093531;28;20569;-82
2022/10/17 01:12:38;;;;;;;9.27;6.97;;;13.50;99.90;;;;;;5081184;28;20197;-83
2022/10/17 01:15:13;;;;;;;9.83;6.87;;;13.50;99.90;;;;;;5073918;28;20220;-83
2022/10/17 01:17:53;;;;;;;11.77;7.60;;;13.50;99.90;;;;;;5073629;28;20218;-85
2022/10/17 01:20:58;;;;;;;8.40;7.10;;;13.50;99.90;;;;;;5073964;28;20377;-84
2022/10/17 01:23:38;;;;;;;10.88;7.82;;;13.50;99.90;;;;;;5074021;28;20189;-87
2022/10/17 01:26:16;;;;;;;11.47;7.70;;;13.50;99.90;;;;;;5073528;28;20201;-86
2022/10/17 01:29:05;;;;;;;13.20;8.00;;;13.50;99.90;;;;;;5073577;28;20189;-84
2022/10/17 01:31:42;;;;;;;12.30;8.03;;;13.50;99.90;;;;;;5073873;28;20201;-84
2022/10/17 01:34:17;;;;;;;10.10;8.13;;;13.50;99.90;;;;;;5073437;28;20490;-85
2022/10/17 01:36:51;;;;;;;10.13;7.77;;;13.50;99.90;;;;;;5073384;28;20193;-84
2022/10/17 01:39:24;;;;;;;11.53;8.27;;;13.50;99.90;;;;;;5072445;28;20225;-81
2022/10/17 01:41:58;;;;;;;11.63;8.13;;;13.50;99.90;;;;;;5071504;28;20210;-83
2022/10/17 01:44:32;;;;;;;11.33;8.13;;;13.50;99.90;;;;;;5073496;28;20193;-79
2022/10/17 01:47:05;;;;;;;13.73;9.60;;;13.50;99.90;;;;;;5075587;28;20197;-82
2022/10/17 01:49:35;;;;;;;11.13;8.45;;;13.50;99.90;;;;;;5076813;28;20197;-79
2022/10/17 01:52:06;;;;;;;12.35;8.73;;;13.60;99.90;;;;;;5074043;28;20587;-83
2022/10/17 01:54:40;;;;;;;9.80;8.70;;;13.60;99.90;;;;;;5073486;28;20208;-80
2022/10/17 01:57:11;;;;;;;11.63;9.40;;;13.60;99.90;;;;;;5082492;28;20228;-85
2022/10/17 01:59:40;;;;;;;11.03;9.30;;;13.60;99.90;;;;;;5093926;28;20218;-80
2022/10/17 02:02:11;;;;;;;14.60;9.33;;;13.60;99.90;;;;;;5092952;28;20617;-80
2022/10/17 02:04:38;;;;;;;12.83;8.73;;;13.60;99.90;;;;;;5088947;28;20199;-81
2022/10/17 02:07:09;;;;;;;14.80;10.20;;;13.60;99.90;;;;;;5072757;28;20190;-82
2022/10/17 02:09:36;;;;;;;9.80;8.17;;;13.60;99.90;;;;;;5071934;28;20198;-80
2022/10/17 02:12:33;;;;;;;10.80;8.40;;;13.60;99.90;;;;;;5073009;28;20197;-84
2022/10/17 02:15:16;;;;;;;13.13;8.67;;;13.60;99.90;;;;;;5072477;28;20280;-83
2022/10/17 02:17:50;;;;;;;12.03;9.33;;;13.60;99.90;;;;;;5072528;28;20635;-81
2022/10/17 02:20:23;;;;;;;9.67;8.70;;;13.60;99.90;;;;;;5081744;28;20214;-80
2022/10/17 02:22:56;;;;;;;11.53;9.20;;;13.60;99.90;;;;;;5091131;28;20196;-80
2022/10/17 02:25:31;;;;;;;10.73;9.03;;;13.70;99.90;;;;;;5078796;28;20711;-82
2022/10/17 02:28:08;;;;;;;12.53;9.80;;;13.70;99.90;;;;;;5076908;28;20201;-80
2022/10/17 02:30:40;;;;;;;15.67;9.47;;;13.70;99.90;;;;;;5076725;28;20189;-84
2022/10/17 02:33:12;;;;;;;8.87;8.00;;;13.70;99.90;;;;;;5088684;28;20192;-84
2022/10/17 02:35:43;;;;;;;8.47;7.57;;;13.70;99.90;;;;;;5096917;28;20193;-84
2022/10/17 02:38:12;;;;;;;8.77;7.80;;;13.70;99.90;;;;;;5096361;28;20232;-84
2022/10/17 02:40:40;;;;;;;10.23;7.80;;;13.80;99.90;;;;;;5096215;28;20231;-84
2022/10/17 02:43:08;;;;;;;9.73;8.40;;;13.80;99.90;;;;;;5090638;28;20216;-84
2022/10/17 02:45:37;;;;;;;8.67;7.80;;;13.80;99.90;;;;;;5030147;28;20210;-83
2022/10/17 02:48:08;;;;;;;11.00;9.80;;;13.90;99.90;;;;;;5044842;28;20400;-84
2022/10/17 02:50:45;;;;;;;12.37;10.80;;;13.90;99.90;;;;;;5075898;28;20905;-81
2022/10/17 02:53:15;;;;;;;15.00;11.93;;;14.00;99.90;;;;;;5075968;28;20267;-83
2022/10/17 02:55:50;;;;;;;19.40;14.07;;;14.10;99.90;;;;;;5076699;28;20244;-81
2022/10/17 02:58:21;;;;;;;18.07;13.03;;;14.20;99.90;;;;;;5076217;28;20197;-85
2022/10/17 03:00:49;;;;;;;22.90;14.70;;;14.30;99.90;;;;;;5075945;28;20221;-83
2022/10/17 03:03:21;;;;;;;18.45;13.63;;;14.30;99.90;;;;;;5076770;28;20197;-83
2022/10/17 03:05:49;;;;;;;17.60;14.18;;;14.40;99.90;;;;;;5075911;28;20190;-84
2022/10/17 03:08:16;;;;;;;15.13;12.30;;;14.40;99.90;;;;;;5078118;28;20211;-82
2022/10/17 03:10:43;;;;;;;14.77;12.53;;;14.40;99.90;;;;;;5096470;28;20207;-82
2022/10/17 03:13:10;;;;;;;15.00;12.57;;;14.50;99.90;;;;;;5095786;28;20284;-84
2022/10/17 03:15:37;;;;;;;16.97;12.33;;;14.50;99.90;;;;;;5096555;28;20197;-85
2022/10/17 03:18:04;;;;;;;15.48;12.73;;;14.50;99.90;;;;;;5092312;28;20197;-83
2022/10/17 03:20:31;;;;;;;13.25;11.85;;;14.50;99.90;;;;;;5075235;28;20206;-84
2022/10/17 03:23:00;;;;;;;18.50;11.88;;;14.50;99.90;;;;;;5075346;28;20193;-82
2022/10/17 03:25:27;;;;;;;17.33;12.45;;;14.50;99.90;;;;;;5075360;28;20228;-85
2022/10/17 03:27:53;;;;;;;19.30;12.45;;;14.60;99.90;;;;;;5075792;28;20197;-85
2022/10/17 03:30:20;;;;;;;15.07;12.93;;;14.60;99.90;;;;;;5074918;28;20263;-80
2022/10/17 03:32:47;;;;;;;15.33;13.20;;;14.60;99.90;;;;;;5074623;28;20291;-82
2022/10/17 03:35:14;;;;;;;17.17;12.77;;;14.60;99.90;;;;;;5075228;28;20287;-83
2022/10/17 03:37:41;;;;;;;18.27;13.63;;;14.60;99.90;;;;;;5075293;28;20243;-83
2022/10/17 03:40:10;;;;;;;17.03;13.57;;;14.60;99.90;;;;;;5075026;28;20292;-83
2022/10/17 03:42:37;;;;;;;16.07;12.77;;;14.60;99.90;;;;;;5074990;28;20240;-83
2022/10/17 03:45:05;;;;;;;16.23;14.03;;;14.60;99.90;;;;;;5074121;28;20481;-82
2022/10/17 03:47:31;;;;;;;17.90;14.47;;;14.60;99.90;;;;;;5073078;28;20197;-82
2022/10/17 03:49:58;;;;;;;15.90;13.47;;;14.70;99.90;;;;;;5074518;28;20189;-79
2022/10/17 03:52:25;;;;;;;14.35;12.75;;;14.70;99.90;;;;;;5074615;28;20606;-80
2022/10/17 03:54:52;;;;;;;20.53;13.53;;;14.70;99.90;;;;;;5074262;28;20225;-84
2022/10/17 03:57:20;;;;;;;17.60;13.53;;;14.70;99.90;;;;;;5074920;28;20240;-83
2022/10/17 03:59:47;;;;;;;17.97;14.23;;;14.80;99.90;;;;;;5074349;28;20656;-82
2022/10/17 04:02:14;;;;;;;17.80;14.10;;;14.80;99.90;;;;;;5074004;28;20304;-82
2022/10/17 04:04:41;;;;;;;17.65;12.82;;;14.80;99.90;;;;;;5073798;28;20208;-79
2022/10/17 04:07:08;;;;;;;17.93;13.93;;;14.80;99.90;;;;;;5074493;28;20608;-82
2022/10/17 04:09:34;;;;;;;17.70;13.93;;;14.80;99.90;;;;;;5073469;28;20294;-80
2022/10/17 04:12:01;;;;;;;17.70;13.20;;;14.80;99.90;;;;;;5074088;28;20197;-80
2022/10/17 04:14:30;;;;;;;16.67;11.67;;;14.80;99.90;;;;;;5075014;28;20221;-81
2022/10/17 04:16:57;;;;;;;12.90;11.55;;;14.80;99.90;;;;;;5072873;28;20614;-83
2022/10/17 04:19:24;;;;;;;13.70;12.05;;;14.80;99.90;;;;;;5073511;28;20198;-83
2022/10/17 04:21:51;;;;;;;16.17;11.35;;;14.80;99.90;;;;;;5073658;28;20228;-83
2022/10/17 04:24:18;;;;;;;14.63;12.87;;;14.80;99.90;;;;;;5073643;28;20285;-82
2022/10/17 04:26:45;;;;;;;14.65;11.73;;;14.80;99.90;;;;;;5074658;28;20205;-82
2022/10/17 04:29:12;;;;;;;13.55;12.23;;;14.80;99.90;;;;;;5073970;28;20197;-82
2022/10/17 04:31:40;;;;;;;13.57;11.40;;;14.80;99.90;;;;;;5074279;28;20200;-82
2022/10/17 04:34:07;;;;;;;13.15;10.95;;;14.80;99.90;;;;;;5073693;28;20211;-83
2022/10/17 04:36:34;;;;;;;12.52;11.23;;;14.80;99.90;;;;;;5073404;28;20290;-82
2022/10/17 04:39:02;;;;;;;10.73;9.73;;;14.80;99.90;;;;;;5073510;28;20248;-82
2022/10/17 04:41:29;;;;;;;11.87;10.67;;;14.80;99.90;;;;;;5073358;28;20219;-83
2022/10/17 04:43:56;;;;;;;13.20;11.23;;;14.80;99.90;;;;;;5073523;28;20216;-82
2022/10/17 04:46:23;;;;;;;13.50;11.70;;;14.90;99.90;;;;;;5073587;28;20464;-83
2022/10/17 04:48:51;;;;;;;13.90;10.50;;;14.90;99.90;;;;;;5073879;28;20193;-81
2022/10/17 04:51:18;;;;;;;14.30;11.02;;;14.90;99.90;;;;;;5073521;28;20205;-82
2022/10/17 04:53:46;;;;;;;13.77;11.10;;;14.90;99.90;;;;;;5073497;28;20197;-80
2022/10/17 04:56:14;;;;;;;16.27;12.73;;;14.90;99.90;;;;;;5073433;28;20900;-82
2022/10/17 04:58:43;;;;;;;13.48;10.98;;;14.90;99.90;;;;;;5073308;28;20295;-84
2022/10/17 05:01:12;;;;;;;15.57;11.40;;;15.00;99.90;;;;;;5073360;28;20859;-82
2022/10/17 05:03:40;;;;;;;11.02;9.93;;;15.10;99.90;;;;;;5073884;28;20225;-83
2022/10/17 05:06:12;;;;;;;12.63;10.27;;;15.10;99.90;;;;;;5072706;28;20199;-83
2022/10/17 05:08:39;;;;;;;11.80;10.55;;;15.10;99.90;;;;;;5073033;28;20280;-83
2022/10/17 05:11:14;;;;;;;11.07;10.00;;;15.20;99.90;;;;;;5073145;28;20200;-82
2022/10/17 05:13:41;;;;;;;14.68;10.50;;;15.20;99.90;;;;;;5073307;28;20227;-84
2022/10/17 05:16:08;;;;;;;12.02;9.82;;;15.20;99.90;;;;;;5073420;28;20288;-83
2022/10/17 05:18:35;;;;;;;10.63;9.50;;;15.20;99.90;;;;;;5073317;28;20201;-82
2022/10/17 05:21:04;;;;;;;10.57;9.45;;;15.20;99.90;;;;;;5072512;28;20205;-80
2022/10/17 05:23:32;;;;;;;11.45;10.15;;;15.30;99.90;;;;;;5072681;28;20604;-82
2022/10/17 05:25:59;;;;;;;12.87;9.23;;;15.40;99.90;;;;;;5071691;28;20228;-82
2022/10/17 05:28:26;;;;;;;13.90;10.30;;;15.40;99.90;;;;;;5071980;28;20193;-78
2022/10/17 05:30:53;;;;;;;11.55;8.80;;;15.30;99.90;;;;;;5071751;28;20236;-77
2022/10/17 05:33:19;;;;;;;13.05;9.75;;;15.30;99.90;;;;;;5080099;28;20199;-80
2022/10/17 05:35:46;;;;;;;12.25;9.32;;;15.40;99.90;;;;;;5077280;28;20212;-80
2022/10/17 05:38:13;;;;;;;12.70;10.25;;;15.40;99.90;;;;;;5071531;28;20253;-80
2022/10/17 05:40:41;;;;;;;13.15;10.40;;;15.40;99.90;;;;;;5071116;28;20201;-78
2022/10/17 05:43:08;;;;;;;11.75;9.50;;;15.50;99.90;;;;;;5071194;28;20221;-78
2022/10/17 05:45:36;;;;;;;13.07;9.45;;;15.60;99.90;;;;;;5071484;28;20189;-78
2022/10/17 05:48:03;;;;;;;9.77;8.75;;;15.60;99.90;;;;;;5070839;28;20205;-78
2022/10/17 05:50:30;;;;;;;11.05;9.52;;;15.60;99.90;;;;;;5071381;28;20698;-78
2022/10/17 05:52:56;;;;;;;10.93;9.35;;;15.60;99.90;;;;;;5072641;28;20204;-82
2022/10/17 05:55:23;;;;;;;11.23;10.02;;;15.70;99.90;;;;;;5072632;28;20252;-81
2022/10/17 05:57:52;;;;;;;12.10;9.68;;;15.80;99.90;;;;;;5073431;28;20233;-82
2022/10/17 06:00:20;;;;;;;15.27;10.23;;;15.70;99.90;;;;;;5075171;28;20190;-82
2022/10/17 06:02:47;;;;;;;11.38;9.15;;;15.80;99.90;;;;;;5076202;28;20224;-82
2022/10/17 06:05:15;;;;;;;14.40;9.95;;;15.80;99.90;;;;;;5076835;28;20289;-83
2022/10/17 06:07:42;;;;;;;9.88;8.88;;;15.80;99.90;;;;;;5083474;28;20739;-81
2022/10/17 06:10:15;;;;;;;13.55;10.00;;;15.80;99.90;;;;;;5096969;28;20302;-84
2022/10/17 06:12:41;;;;;;;11.50;9.40;;;15.80;99.90;;;;;;5079855;28;20217;-81
2022/10/17 06:15:11;;;;;;;14.45;9.48;;;15.80;99.90;;;;;;5080423;28;20223;-82
2022/10/17 06:17:38;;;;;;;10.45;8.77;;;15.90;99.90;;;;;;5096620;28;20220;-81
2022/10/17 06:20:06;;;;;;;12.48;9.30;;;15.80;99.90;;;;;;5096866;28;20605;-80
2022/10/17 06:22:33;;;;;;;10.93;8.90;;;15.80;99.90;;;;;;5089004;28;20260;-84
2022/10/17 06:25:00;;;;;;;10.88;9.18;;;15.80;99.90;;;;;;5076831;28;20614;-86
2022/10/17 06:27:26;;;;;;;11.93;9.07;;;15.90;99.90;;;;;;5076886;28;20370;-84
2022/10/17 06:29:53;;;;;;;10.23;8.43;;;15.90;99.90;;;;;;5076454;28;20197;-83
2022/10/17 06:32:22;;;;;;;10.55;8.43;;;15.90;99.90;;;;;;5076124;28;20197;-81
2022/10/17 06:34:48;;;;;;;9.48;8.25;;;15.90;99.90;;;;;;5087783;28;20300;-84
2022/10/17 06:37:15;;;;;;;9.82;8.82;;;15.90;99.90;;;;;;5096564;28;20291;-86
2022/10/17 06:39:42;;;;;;;11.93;8.32;;;16.00;99.90;;;;;;5094084;28;20715;-83
2022/10/17 06:42:09;;;;;;;11.05;9.30;;;16.00;99.90;;;;;;5076434;28;20221;-81
2022/10/17 06:44:36;;;;;;;10.57;8.63;;;16.00;99.90;;;;;;5075204;28;20197;-80
2022/10/17 06:47:03;;;;;;;13.73;9.05;;;16.00;99.90;;;;;;5075977;28;20205;-84
2022/10/17 06:49:33;;;;;;;7.88;7.13;;;16.00;99.90;;;;;;5076651;28;20228;-82
2022/10/17 06:51:59;;;;;;;11.93;8.60;;;16.10;99.90;;;;;;5076068;28;20285;-83
2022/10/17 06:54:27;;;;;;;9.98;8.27;;;16.00;99.90;;;;;;5082495;28;20200;-79
2022/10/17 06:56:54;;;;;;;9.95;7.72;;;16.10;99.90;;;;;;5095798;28;20310;-84
2022/10/17 06:59:22;;;;;;;13.60;8.88;;;16.10;99.90;;;;;;5096240;28;20205;-85
2022/10/17 07:01:49;;;;;;;10.07;8.38;;;16.10;99.90;;;;;;5085720;28;20828;-85
2022/10/17 07:04:15;;;;;;;10.23;8.85;;;16.10;99.90;;;;;;5075008;28;20205;-84
2022/10/17 07:06:44;;;;;;;12.63;8.25;;;16.10;99.90;;;;;;5075762;28;20197;-84
2022/10/17 07:09:11;;;;;;;10.68;9.57;;;16.00;99.90;;;;;;5075828;28;20486;-84
2022/10/17 07:11:39;;;;;;;10.82;8.90;;;16.00;99.90;;;;;;5080233;28;20290;-85
2022/10/17 07:14:05;;;;;;;12.77;9.55;;;16.00;99.90;;;;;;5075273;28;20198;-84
2022/10/17 07:16:34;;;;;;;10.85;8.93;;;16.00;99.90;;;;;;5086277;28;20208;-81
2022/10/17 07:19:01;;;;;;;11.63;9.05;;;16.00;99.90;;;;;;5094250;28;20664;-83
2022/10/17 07:21:28;;;;;;;13.00;8.57;;;16.00;99.90;;;;;;5094596;28;20675;-80
2022/10/17 07:23:56;;;;;;;13.45;9.27;;;16.00;99.90;;;;;;5089023;28;20217;-83
2022/10/17 07:26:23;;;;;;;11.85;9.85;;;16.00;99.90;;;;;;5074817;28;20204;-84
2022/10/17 07:28:54;;;;;;;10.15;8.90;;;15.90;99.90;;;;;;5075468;28;20300;-84
2022/10/17 07:31:23;;;;;;;11.27;10.02;;;15.90;99.90;;;;;;5075082;28;20205;-79
2022/10/17 07:33:50;;;;;;;11.80;9.48;;;15.90;99.90;;;;;;5074006;28;20493;-82
2022/10/17 07:36:18;;;;;;;12.23;8.52;;;16.00;99.90;;;;;;5075023;28;20197;-79
2022/10/17 07:38:45;;;;;;;9.02;8.23;;;16.00;99.90;;;;;;5081297;28;20236;-80
2022/10/17 07:41:13;;;;;;;13.15;9.82;;;15.90;99.90;;;;;;5093987;28;20209;-78
2022/10/17 07:43:41;;;;;;;11.65;8.85;;;16.00;99.90;;;;;;5091128;28;20632;-79
2022/10/17 07:46:10;;;;;;;14.32;10.20;;;16.00;99.90;;;;;;5072782;28;20209;-82
2022/10/17 07:48:38;;;;;;;12.48;9.57;;;16.00;99.90;;;;;;5073838;28;20492;-81
2022/10/17 07:51:06;;;;;;;10.13;8.98;;;16.00;99.90;;;;;;5074294;28;20205;-81
2022/10/17 07:53:35;;;;;;;14.75;8.80;;;16.10;99.90;;;;;;5091391;28;20287;-82
2022/10/17 07:56:05;;;;;;;9.65;8.65;;;16.10;99.90;;;;;;5100021;28;20296;-82
2022/10/17 07:58:34;;;;;;;10.95;9.45;;;16.10;99.90;;;;;;5093347;28;20370;-81
2022/10/17 08:01:01;;;;;;;10.18;8.80;;;16.20;99.90;;;;;;5090208;28;20205;-81
2022/10/17 08:03:28;;;;;;;10.68;8.32;;;16.20;99.90;;;;;;5089002;28;20235;-83
2022/10/17 08:05:57;;;;;;;11.10;9.18;;;16.20;99.90;;;;;;5093426;28;20261;-82
2022/10/17 08:08:24;;;;;;;10.15;8.80;;;16.20;99.90;;;;;;5088472;28;20197;-83
2022/10/17 08:10:52;;;;;;;11.00;9.00;;;16.20;99.90;;;;;;5086534;28;20316;-82
2022/10/17 08:13:18;;;;;;;12.18;8.57;;;16.20;99.90;;;;;;5072800;28;20255;-83
2022/10/17 08:15:47;;;;;;;11.73;9.00;;;16.30;99.90;;;;;;5072857;28;20203;-84
2022/10/17 08:18:14;;;;;;;12.63;8.55;;;16.40;99.90;;;;;;5073649;28;20209;-79
2022/10/17 08:20:41;;;;;;;12.30;9.10;;;16.40;99.90;;;;;;5074206;28;20204;-81
2022/10/17 08:23:09;;;;;;;11.48;8.43;;;16.50;99.90;;;;;;5072501;28;20307;-80
2022/10/17 08:25:38;;;;;;;11.80;8.52;;;16.40;99.90;;;;;;5073634;28;20208;-83
2022/10/17 08:28:05;;;;;;;11.23;9.23;;;16.50;99.90;;;;;;5072962;28;20330;-83
2022/10/17 08:30:32;;;;;;;8.65;7.63;;;16.50;99.90;;;;;;5073125;28;20200;-79
2022/10/17 08:33:00;;;;;;;13.32;8.75;;;16.60;99.90;;;;;;5087233;28;20199;-81
2022/10/17 08:35:27;;;;;;;11.82;7.82;;;16.60;99.90;;;;;;5092904;28;20695;-79
2022/10/17 08:37:54;;;;;;;10.85;8.52;;;16.60;99.90;;;;;;5091139;28;20323;-81
2022/10/17 08:40:25;;;;;;;10.00;8.70;;;16.60;99.90;;;;;;5072830;28;20201;-80
2022/10/17 08:43:11;;;;;;;12.05;8.30;;;16.60;99.90;;;;;;5072167;28;20283;-85
2022/10/17 08:45:46;;;;;;;10.88;8.43;;;16.70;99.90;;;;;;5073308;28;20205;-84
2022/10/17 08:48:18;;;;;;;10.77;7.97;;;16.70;99.90;;;;;;5088260;28;20204;-79
2022/10/17 08:50:49;;;;;;;10.48;7.25;;;16.70;99.90;;;;;;5091942;28;20252;-80
2022/10/17 08:53:23;;;;;;;11.57;8.00;;;16.70;99.90;;;;;;5091144;28;20196;-83
2022/10/17 08:55:51;;;;;;;10.93;7.10;;;16.70;99.90;;;;;;5092263;28;20240;-80
2022/10/17 08:58:21;;;;;;;8.88;7.43;;;16.70;99.90;;;;;;5088140;28;20206;-82
2022/10/17 09:01:03;;;;;;;9.68;7.13;;;16.70;99.90;;;;;;5089533;28;20204;-83
2022/10/17 09:03:45;;;;;;;10.30;6.85;;;16.70;99.90;;;;;;5087308;28;20616;-81
2022/10/17 09:06:19;;;;;;;10.95;7.50;;;16.70;99.90;;;;;;5071952;28;20197;-83
2022/10/17 09:08:57;;;;;;;10.88;7.63;;;16.60;99.90;;;;;;5071927;28;20193;-81
2022/10/17 09:11:48;;;;;;;9.35;7.07;;;16.70;99.90;;;;;;5070694;28;20197;-80
2022/10/17 09:14:30;;;;;;;9.35;7.07;;;16.70;99.90;;;;;;5071846;28;20181;-80
2022/10/17 09:17:08;;;;;;;12.07;8.00;;;16.70;99.90;;;;;;5071732;28;20209;-80
2022/10/17 09:19:40;;;;;;;11.20;8.43;;;16.70;99.90;;;;;;5077294;28;20195;-82
2022/10/17 09:22:12;;;;;;;13.90;8.70;;;16.80;99.90;;;;;;5072037;28;20186;-80
2022/10/17 09:24:43;;;;;;;16.45;9.05;;;16.80;99.90;;;;;;5071305;28;20196;-81
2022/10/17 09:27:20;;;;;;;12.80;7.15;;;16.80;99.90;;;;;;5071743;28;20227;-80
2022/10/17 09:29:50;;;;;;;10.30;6.25;;;16.80;99.90;;;;;;5084576;28;20506;-79
2022/10/17 09:32:22;;;;;;;10.75;5.47;;;16.80;99.90;;;;;;5091412;28;20470;-80
2022/10/17 09:34:52;;;;;;;12.20;5.97;;;16.80;99.90;;;;;;5096140;28;20191;-84
2022/10/17 09:37:19;;;;;;;13.13;6.22;;;16.80;99.90;;;;;;5095706;28;20204;-82
2022/10/17 09:39:46;;;;;;;13.43;6.68;;;16.80;99.90;;;;;;5081275;28;20204;-80
2022/10/17 09:42:17;;;;;;;10.93;5.47;;;16.70;99.90;;;;;;5076660;28;20201;-81
2022/10/17 09:44:50;;;;;;;8.77;5.07;;;16.70;99.90;;;;;;5076212;28;20803;-79
2022/10/17 09:47:28;;;;;;;11.93;5.82;;;16.70;99.90;;;;;;5076222;28;20198;-80
2022/10/17 09:49:56;;;;;;;11.73;5.93;;;16.70;99.90;;;;;;5078188;28;20193;-82
2022/10/17 09:52:28;;;;;;;8.38;5.68;;;16.70;99.90;;;;;;5089019;28;20200;-81
2022/10/17 09:54:59;;;;;;;13.35;6.25;;;16.70;99.90;;;;;;5096508;28;20547;-86
2022/10/17 09:57:26;;;;;;;13.85;5.80;;;16.70;99.90;;;;;;5094962;28;20189;-80
2022/10/17 09:59:59;;;;;;;16.08;5.47;;;16.70;99.90;;;;;;5094765;28;20197;-81
2022/10/17 10:02:27;;;;;;;12.13;4.85;;;16.70;99.90;;;;;;5095844;28;20196;-82
2022/10/17 10:05:01;;;;;;;11.93;4.32;;;16.70;99.90;;;;;;5096470;28;20201;-80
2022/10/17 10:07:29;;;;;;;8.25;4.28;;;16.70;99.90;;;;;;5095234;28;20276;-80
2022/10/17 10:09:57;;;;;;;9.75;4.22;;;16.70;99.90;;;;;;5088329;28;20208;-79
2022/10/17 10:12:30;;;;;;;9.40;4.15;;;16.70;99.90;;;;;;5097410;28;20192;-80
2022/10/17 10:14:57;;;;;;;11.90;4.72;;;16.70;99.90;;;;;;5110403;28;20215;-80
2022/10/17 10:17:40;;;;;;;8.13;3.55;;;16.70;99.90;;;;;;5098644;28;20603;-86
2022/10/17 10:20:28;;;;;;;5.72;3.63;;;16.70;99.90;;;;;;5087725;28;20640;-82
2022/10/17 10:23:17;;;;;;;7.22;3.53;;;16.70;99.90;;;;;;5095190;28;20227;-81
2022/10/17 10:25:53;;;;;;;7.75;3.47;;;16.70;99.90;;;;;;5069806;28;20204;-81
2022/10/17 10:28:23;;;;;;;8.48;3.40;;;16.70;99.90;;;;;;5075506;28;20581;-81
2022/10/17 10:30:52;;;;;;;9.20;3.78;;;16.70;99.90;;;;;;5094616;28;20203;-84
2022/10/17 10:33:20;;;;;;;7.70;3.70;;;16.60;99.90;;;;;;5094510;28;20246;-82
2022/10/17 10:35:56;;;;;;;7.13;3.40;;;16.60;99.90;;;;;;5085223;28;20193;-84
2022/10/17 10:38:23;;;;;;;6.28;2.92;;;16.60;99.90;;;;;;5076473;28;20304;-84
2022/10/17 10:40:52;;;;;;;5.93;2.95;;;16.50;99.90;;;;;;5090949;28;20196;-87
2022/10/17 10:43:31;;;;;;;5.65;3.17;;;16.60;99.90;;;;;;5096241;28;20219;-85
2022/10/17 10:45:58;;;;;;;8.88;3.28;;;16.50;99.90;;;;;;5097768;28;20283;-85
2022/10/17 10:48:27;;;;;;;9.10;3.63;;;16.50;99.90;;;;;;5081616;28;21073;-85
2022/10/17 10:50:58;;;;;;;11.68;3.88;;;16.50;99.90;;;;;;5076820;28;20574;-88
2022/10/17 10:53:39;;;;;;;6.45;3.10;;;16.50;99.90;;;;;;5076983;28;20192;-85
2022/10/17 10:56:10;;;;;;;7.55;3.15;;;16.50;99.90;;;;;;5099476;28;20223;-84
2022/10/17 10:58:43;;;;;;;6.60;3.53;;;16.50;99.90;;;;;;5076224;28;20788;-86
2022/10/17 11:01:17;;;;;;;8.68;3.60;;;16.50;99.90;;;;;;5100680;28;20707;-84
2022/10/17 11:03:56;;;;;;;7.03;3.45;;;16.50;99.90;;;;;;5094999;28;20602;-87
2022/10/17 11:06:28;;;;;;;5.43;3.30;;;16.50;99.90;;;;;;5076769;28;20177;-87
2022/10/17 11:09:10;;;;;;;7.50;3.40;;;16.50;99.90;;;;;;5084234;28;20199;-84
2022/10/17 11:11:41;;;;;;;8.52;3.53;;;16.50;99.90;;;;;;5096181;28;20204;-86
2022/10/17 11:14:14;;;;;;;8.05;4.05;;;16.50;99.90;;;;;;5097080;28;20211;-89
2022/10/17 11:16:47;;;;;;;10.55;3.42;;;16.50;99.90;;;;;;5096218;28;20199;-86
2022/10/17 11:19:20;;;;;;;7.07;3.60;;;16.50;99.90;;;;;;5079279;28;20284;-80
2022/10/17 11:21:58;;;;;;;9.90;3.42;;;16.50;99.90;;;;;;5093723;28;20275;-86
2022/10/17 11:24:29;;;;;;;8.00;3.75;;;16.50;99.90;;;;;;5095800;28;20275;-85
2022/10/17 11:27:00;;;;;;;8.65;3.85;;;16.50;99.90;;;;;;5096048;28;20207;-85
2022/10/17 11:29:30;;;;;;;6.93;3.45;;;16.50;99.90;;;;;;5094540;28;20188;-85
2022/10/17 11:32:00;;;;;;;10.63;3.45;;;16.50;99.90;;;;;;5096337;28;20287;-83
2022/10/17 11:34:31;;;;;;;9.18;3.35;;;16.50;99.90;;;;;;5095692;28;20504;-84
2022/10/17 11:37:03;;;;;;;8.15;4.38;;;16.60;99.90;;;;;;5084011;28;20208;-84
2022/10/17 11:39:36;;;;;;;6.82;3.53;;;16.60;99.90;;;;;;5075336;28;20240;-82
2022/10/17 11:42:07;;;;;;;8.25;3.83;;;16.60;99.90;;;;;;5075295;28;20653;-83
2022/10/17 11:44:36;;;;;;;6.43;3.33;;;16.60;99.90;;;;;;5090839;28;20217;-83
2022/10/17 11:47:13;;;;;;;6.35;3.03;;;16.70;99.90;;;;;;5089941;28;20219;-83
2022/10/17 11:49:44;;;;;;;8.50;3.65;;;16.70;99.90;;;;;;5075053;28;20205;-83
2022/10/17 11:52:27;;;;;;;9.52;3.42;;;16.70;99.90;;;;;;5079263;28;20197;-79
2022/10/17 11:54:57;;;;;;;10.02;3.47;;;16.70;99.90;;;;;;5093549;28;20188;-83
2022/10/17 11:57:42;;;;;;;5.07;2.90;;;16.70;99.90;;;;;;5084122;28;20300;-86
2022/10/17 12:00:34;;;;;;;8.52;3.40;;;16.80;99.90;;;;;;5092310;28;20239;-79
2022/10/17 12:03:10;;;;;;;6.30;3.00;;;16.80;99.90;;;;;;5093987;28;20189;-85
2022/10/17 12:05:46;;;;;;;12.00;3.80;;;16.80;99.90;;;;;;5094166;28;20211;-84
2022/10/17 12:08:24;;;;;;;6.95;3.38;;;16.80;99.90;;;;;;5094649;28;20180;-83
2022/10/17 12:10:58;;;;;;;5.38;3.25;;;16.80;99.90;;;;;;5095125;28;20279;-84
2022/10/17 12:13:51;;;;;;;10.32;3.47;;;16.80;99.90;;;;;;5094432;28;20206;-82
2022/10/17 12:16:45;;;;;;;5.45;2.85;;;16.80;99.90;;;;;;5093993;28;20205;-83
2022/10/17 12:19:31;;;;;;;7.20;3.50;;;16.80;99.90;;;;;;5095008;28;20181;-86
2022/10/17 12:22:03;;;;;;;8.52;3.17;;;16.80;99.90;;;;;;5094497;28;20204;-80
2022/10/17 12:24:41;;;;;;;4.22;3.15;;;16.80;99.90;;;;;;5094739;28;20639;-84
2022/10/17 12:27:41;;;;;;;7.18;3.00;;;16.80;99.90;;;;;;5093779;28;20196;-83
2022/10/17 12:30:20;;;;;;;5.07;2.72;;;16.80;99.90;;;;;;5014179;28;20258;-84
2022/10/17 12:33:01;;;;;;;5.03;2.90;;;16.80;99.90;;;;;;5083954;28;20242;-80
2022/10/17 12:35:30;;;;;;;8.13;3.00;;;16.80;99.90;;;;;;5092242;28;20185;-83
2022/10/17 12:38:15;;;;;;;8.98;2.92;;;16.80;99.90;;;;;;5088824;28;20708;-77
2022/10/17 12:40:54;;;;;;;7.05;2.72;;;16.90;99.90;;;;;;5090388;28;20632;-80
2022/10/17 12:43:46;;;;;;;5.35;2.65;;;16.90;99.90;;;;;;5089942;28;20271;-79
2022/10/17 12:46:33;;;;;;;6.47;3.08;;;16.80;99.90;;;;;;5077795;28;20211;-78
2022/10/17 12:49:04;;;;;;;5.88;2.55;;;16.80;99.90;;;;;;5089513;28;20488;-78
2022/10/17 12:52:15;;;;;;;5.90;3.38;;;16.90;99.90;;;;;;5088407;28;20181;-78
2022/10/17 12:54:44;;;;;;;6.25;2.65;;;16.90;99.90;;;;;;5090804;28;20196;-79
2022/10/17 12:57:20;;;;;;;5.32;2.78;;;16.90;99.90;;;;;;5088216;28;20212;-81